Post Lake, Wisconsin
Current Conditions -  °F | °C
As of 6:35 PM on Saturday 25 Oct 2014 (Local Time) from KAIG Reporting Station
Clear Clear  
Wind Chill: 52°   Ceiling: Unl
Heat Index: 52°   Visibility: 10mi
Dew Point: 25°   Wind: 14mph
Humidity: 35%   Direction: 290°WNW
Pressure: 29.88"   Gusts: NA
Location:  45.4353°N, 89.1485°W
Report Text: KAIG 252335Z AUTO 29012KT 10SM CLR 11/M04 A2988 RMK AO2 T01111039
Loading
Personal Weather Stations






























Interactive Weather Map
Tropical Storm Tracking
New forecast layout! Learn more

10-Day Weather Forecast

Advertisements
Track Severe Weather on mobile